Gekko — XPE6900 — position and weather

sailwx.info

Track history (hours):
 
Tides and Currents Weather Stations Pressure Air Temp Water Temp Dewpoint Dewpoint Depression Visibility Wind Speed Wind Dir Waves Ship Positions

Gekko

Last reported at 2017-Oct-01 04:46 UTC. Time now 2017-Oct-20 07:22 UTC.
Position N 57°42' E 011°56'.
Warning: this ship's position is 19 days out of date.

Length 6 m.

Type: Pleasure craft. MMSI: 219020512.

Date/timePositionNaut miles runAvg speedWind from/ knotsBaromVisibWave heightAir tempDewpointWater temp
2017-Oct-01 04:46N 57°42' E 011°56'0 0.0
2017-Oct-01 04:28N 57°42' E 011°56'0 0.0
2017-Oct-01 03:58N 57°42' E 011°56'0 0.0
2017-Oct-01 03:28N 57°42' E 011°56'0 0.0
2017-Oct-01 02:58N 57°42' E 011°56'86319.2
2017-Sep-29 06:05N 70°60' E 024°40'1 9.1
2017-Sep-29 06:01N 70°60' E 024°38'2 0.2
2017-Sep-28 15:45N 70°58' E 024°35'625.1
2017-Sep-28 15:29N 70°54' E 024°18'2 4.5
2017-Sep-28 14:59N 70°53' E 024°13'0 0.3
2017-Sep-28 14:29N 70°53' E 024°13'0 0.2
2017-Sep-28 13:59N 70°53' E 024°13'3 5.5
2017-Sep-28 13:30N 70°55' E 024°08'1 2.0
2017-Sep-28 12:59N 70°56' E 024°06'0 0.2
2017-Sep-28 12:28N 70°56' E 024°06'0 0.2
2017-Sep-28 11:58N 70°56' E 024°06'0 0.1
2017-Sep-28 11:29N 70°56' E 024°06'0 0.3
2017-Sep-28 11:00N 70°56' E 024°06'0 0.4
2017-Sep-28 10:30N 70°56' E 024°06'0 0.3
2017-Sep-28 09:59N 70°56' E 024°07'4 7.4
2017-Sep-28 09:29N 70°52' E 024°12'0 0.5
2017-Sep-28 08:59N 70°53' E 024°13'0 0.3
2017-Sep-28 08:30N 70°53' E 024°13'0 0.3
2017-Sep-28 08:00N 70°53' E 024°13'0 0.2
2017-Sep-28 07:30N 70°53' E 024°13'0 0.1
2017-Sep-28 07:00N 70°53' E 024°13'0 0.4
2017-Sep-28 06:30N 70°53' E 024°13'5 9.8
2017-Sep-28 06:00N 70°56' E 024°25'3 5.5
2017-Sep-28 05:31N 70°58' E 024°31'2 3.8
2017-Sep-28 04:59N 70°59' E 024°35'2 0.1
2017-Sep-27 14:54N 70°58' E 024°34'1 3.6
2017-Sep-27 14:30N 70°59' E 024°34'1 3.0
2017-Sep-27 14:00N 70°60' E 024°38'713.3
2017-Sep-27 13:29N 70°56' E 024°21'4 7.0
2017-Sep-27 12:59N 70°53' E 024°14'0 0.8
2017-Sep-27 12:29N 70°53' E 024°13'1 1.0
2017-Sep-27 11:58N 70°52' E 024°12'0 0.2
2017-Sep-27 11:28N 70°52' E 024°12'0 0.3
2017-Sep-27 10:59N 70°52' E 024°12'2 3.5
2017-Sep-27 10:29N 70°53' E 024°16'0 0.3
2017-Sep-27 09:58N 70°53' E 024°16'0 0.4
2017-Sep-27 09:28N 70°53' E 024°17'0 0.6
2017-Sep-27 09:00N 70°53' E 024°17'0 0.4
2017-Sep-27 08:30N 70°53' E 024°18'0 0.0
2017-Sep-27 08:00N 70°53' E 024°18'0 0.8
2017-Sep-27 07:30N 70°53' E 024°17'0 0.3
2017-Sep-27 06:59N 70°53' E 024°17'0 0.9
2017-Sep-27 06:30N 70°53' E 024°16'1 1.0
2017-Sep-27 06:00N 70°53' E 024°17'1 2.6
2017-Sep-27 05:30N 70°53' E 024°13'1 1.2
2017-Sep-27 05:00N 70°53' E 024°13'2 3.6
2017-Sep-27 04:30N 70°54' E 024°16'612.5
2017-Sep-27 04:00N 70°58' E 024°31'2 0.2
2017-Sep-26 16:04N 70°58' E 024°38'226.8
2017-Sep-26 16:00N 70°58' E 024°33'713.6
2017-Sep-26 15:30N 70°53' E 024°17'1 2.7
2017-Sep-26 15:01N 70°53' E 024°13'1 1.4
2017-Sep-26 14:30N 70°54' E 024°14'1 1.7
2017-Sep-26 14:00N 70°53' E 024°13'0 0.6
2017-Sep-26 13:31N 70°53' E 024°13'0 0.4
2017-Sep-26 12:59N 70°53' E 024°13'0 0.2
2017-Sep-26 12:29N 70°53' E 024°13'0 0.5
2017-Sep-26 11:59N 70°53' E 024°13'0 0.7
2017-Sep-26 11:30N 70°53' E 024°12'0 0.6
2017-Sep-26 11:00N 70°53' E 024°13'0 0.4
2017-Sep-26 10:31N 70°53' E 024°13'0 0.7
2017-Sep-26 09:59N 70°53' E 024°13'1 1.7
2017-Sep-26 09:29N 70°52' E 024°11'0 0.4
2017-Sep-26 08:59N 70°52' E 024°11'0 0.4
2017-Sep-26 08:29N 70°52' E 024°12'1 2.1
2017-Sep-26 07:58N 70°53' E 024°14'0 0.1
2017-Sep-26 07:28N 70°53' E 024°13'0 0.3
2017-Sep-26 06:58N 70°53' E 024°13'0 0.5
2017-Sep-26 06:29N 70°53' E 024°13'1 1.1
2017-Sep-26 06:00N 70°53' E 024°13'0 1.0
2017-Sep-26 05:29N 70°53' E 024°13'816.2
2017-Sep-26 05:01N 70°58' E 024°31'0 0.7
2017-Sep-26 04:28N 70°58' E 024°32'1 0.1
2017-Sep-25 16:02N 70°58' E 024°34'116.3
2017-Sep-25 16:00N 70°57' E 024°32'613.1
2017-Sep-25 15:30N 70°54' E 024°16'1 1.8
2017-Sep-25 14:59N 70°53' E 024°14'1 2.5
2017-Sep-25 14:29N 70°52' E 024°12'1 1.7
2017-Sep-25 13:59N 70°52' E 024°14'1 2.5
2017-Sep-25 13:30N 70°54' E 024°15'0 0.7
2017-Sep-25 13:00N 70°53' E 024°13'1 1.2
2017-Sep-25 12:30N 70°53' E 024°13'1 1.1
2017-Sep-25 12:00N 70°52' E 024°12'0 0.8
2017-Sep-25 11:30N 70°52' E 024°11'0 0.3
2017-Sep-25 11:00N 70°52' E 024°11'4 7.2
2017-Sep-25 10:30N 70°49' E 024°16'1 1.1
2017-Sep-25 09:59N 70°48' E 024°15'0 0.2
2017-Sep-25 09:29N 70°48' E 024°15'0 0.4
2017-Sep-25 08:59N 70°48' E 024°16'0 0.1
2017-Sep-25 08:29N 70°48' E 024°16'4 9.0
2017-Sep-25 08:01N 70°53' E 024°13'0 0.9
2017-Sep-25 07:31N 70°53' E 024°13'0 0.6
2017-Sep-25 07:00N 70°53' E 024°13'0 0.4
2017-Sep-25 06:29N 70°53' E 024°13'0 1.0
2017-Sep-25 05:59N 70°52' E 024°12'1 1.2
2017-Sep-25 05:29N 70°52' E 024°11'1 1.5
2017-Sep-25 05:00N 70°51' E 024°11'9 0.7
2017-Sep-24 17:10N 70°57' E 024°31'536.5
2017-Sep-24 17:01N 70°54' E 024°16'1 2.8
2017-Sep-24 16:30N 70°53' E 024°13'0 0.1
2017-Sep-24 15:59N 70°53' E 024°13'0 0.5
2017-Sep-24 15:26N 70°53' E 024°13'1 1.7
2017-Sep-24 15:01N 70°52' E 024°12'0 0.6
2017-Sep-24 14:31N 70°52' E 024°12'0 0.6
2017-Sep-24 14:01N 70°52' E 024°13'0 0.5
2017-Sep-24 13:31N 70°52' E 024°13'1 1.4
2017-Sep-24 13:00N 70°53' E 024°14'1 1.2
2017-Sep-24 12:30N 70°53' E 024°13'0 0.8
2017-Sep-24 12:00N 70°53' E 024°13'0 0.5
2017-Sep-24 11:30N 70°53' E 024°13'0 0.3
2017-Sep-24 10:59N 70°53' E 024°14'0 0.5
2017-Sep-24 10:29N 70°53' E 024°14'0 0.4
2017-Sep-24 10:00N 70°53' E 024°14'8 3.4
2017-Sep-24 07:45N 70°58' E 024°33'311.5
2017-Sep-24 07:30N 70°60' E 024°40'  
Track history (hours):
 
Tides and Currents Weather Stations Pressure Air Temp Water Temp Dewpoint Dewpoint Depression Visibility Wind Speed Wind Dir Waves Ship Positions

Gekko

Last reported at 2017-Oct-01 04:46 UTC. Time now 2017-Oct-20 07:22 UTC.
Position N 57°42' E 011°56'.
Warning: this ship's position is 19 days out of date.

Length 6 m.

Type: Pleasure craft. MMSI: 219020512.

Date/timePositionNaut miles runAvg speedWind from/ knotsBaromVisibWave heightAir tempDewpointWater temp
2017-Oct-01 04:46N 57°42' E 011°56'0 0.0
2017-Oct-01 04:28N 57°42' E 011°56'0 0.0
2017-Oct-01 03:58N 57°42' E 011°56'0 0.0
2017-Oct-01 03:28N 57°42' E 011°56'0 0.0
2017-Oct-01 02:58N 57°42' E 011°56'86319.2
2017-Sep-29 06:05N 70°60' E 024°40'1 9.1
2017-Sep-29 06:01N 70°60' E 024°38'2 0.2
2017-Sep-28 15:45N 70°58' E 024°35'625.1
2017-Sep-28 15:29N 70°54' E 024°18'2 4.5
2017-Sep-28 14:59N 70°53' E 024°13'0 0.3
2017-Sep-28 14:29N 70°53' E 024°13'0 0.2
2017-Sep-28 13:59N 70°53' E 024°13'3 5.5
2017-Sep-28 13:30N 70°55' E 024°08'1 2.0
2017-Sep-28 12:59N 70°56' E 024°06'0 0.2
2017-Sep-28 12:28N 70°56' E 024°06'0 0.2
2017-Sep-28 11:58N 70°56' E 024°06'0 0.1
2017-Sep-28 11:29N 70°56' E 024°06'0 0.3
2017-Sep-28 11:00N 70°56' E 024°06'0 0.4
2017-Sep-28 10:30N 70°56' E 024°06'0 0.3
2017-Sep-28 09:59N 70°56' E 024°07'4 7.4
2017-Sep-28 09:29N 70°52' E 024°12'0 0.5
2017-Sep-28 08:59N 70°53' E 024°13'0 0.3
2017-Sep-28 08:30N 70°53' E 024°13'0 0.3
2017-Sep-28 08:00N 70°53' E 024°13'0 0.2
2017-Sep-28 07:30N 70°53' E 024°13'0 0.1
2017-Sep-28 07:00N 70°53' E 024°13'0 0.4
2017-Sep-28 06:30N 70°53' E 024°13'5 9.8
2017-Sep-28 06:00N 70°56' E 024°25'3 5.5
2017-Sep-28 05:31N 70°58' E 024°31'2 3.8
2017-Sep-28 04:59N 70°59' E 024°35'2 0.1
2017-Sep-27 14:54N 70°58' E 024°34'1 3.6
2017-Sep-27 14:30N 70°59' E 024°34'1 3.0
2017-Sep-27 14:00N 70°60' E 024°38'713.3
2017-Sep-27 13:29N 70°56' E 024°21'4 7.0
2017-Sep-27 12:59N 70°53' E 024°14'0 0.8
2017-Sep-27 12:29N 70°53' E 024°13'1 1.0
2017-Sep-27 11:58N 70°52' E 024°12'0 0.2
2017-Sep-27 11:28N 70°52' E 024°12'0 0.3
2017-Sep-27 10:59N 70°52' E 024°12'2 3.5
2017-Sep-27 10:29N 70°53' E 024°16'0 0.3
2017-Sep-27 09:58N 70°53' E 024°16'0 0.4
2017-Sep-27 09:28N 70°53' E 024°17'0 0.6
2017-Sep-27 09:00N 70°53' E 024°17'0 0.4
2017-Sep-27 08:30N 70°53' E 024°18'0 0.0
2017-Sep-27 08:00N 70°53' E 024°18'0 0.8
2017-Sep-27 07:30N 70°53' E 024°17'0 0.3
2017-Sep-27 06:59N 70°53' E 024°17'0 0.9
2017-Sep-27 06:30N 70°53' E 024°16'1 1.0
2017-Sep-27 06:00N 70°53' E 024°17'1 2.6
2017-Sep-27 05:30N 70°53' E 024°13'1 1.2
2017-Sep-27 05:00N 70°53' E 024°13'2 3.6
2017-Sep-27 04:30N 70°54' E 024°16'612.5
2017-Sep-27 04:00N 70°58' E 024°31'2 0.2
2017-Sep-26 16:04N 70°58' E 024°38'226.8
2017-Sep-26 16:00N 70°58' E 024°33'713.6
2017-Sep-26 15:30N 70°53' E 024°17'1 2.7
2017-Sep-26 15:01N 70°53' E 024°13'1 1.4
2017-Sep-26 14:30N 70°54' E 024°14'1 1.7
2017-Sep-26 14:00N 70°53' E 024°13'0 0.6
2017-Sep-26 13:31N 70°53' E 024°13'0 0.4
2017-Sep-26 12:59N 70°53' E 024°13'0 0.2
2017-Sep-26 12:29N 70°53' E 024°13'0 0.5
2017-Sep-26 11:59N 70°53' E 024°13'0 0.7
2017-Sep-26 11:30N 70°53' E 024°12'0 0.6
2017-Sep-26 11:00N 70°53' E 024°13'0 0.4
2017-Sep-26 10:31N 70°53' E 024°13'0 0.7
2017-Sep-26 09:59N 70°53' E 024°13'1 1.7
2017-Sep-26 09:29N 70°52' E 024°11'0 0.4
2017-Sep-26 08:59N 70°52' E 024°11'0 0.4
2017-Sep-26 08:29N 70°52' E 024°12'1 2.1
2017-Sep-26 07:58N 70°53' E 024°14'0 0.1
2017-Sep-26 07:28N 70°53' E 024°13'0 0.3
2017-Sep-26 06:58N 70°53' E 024°13'0 0.5
2017-Sep-26 06:29N 70°53' E 024°13'1 1.1
2017-Sep-26 06:00N 70°53' E 024°13'0 1.0
2017-Sep-26 05:29N 70°53' E 024°13'816.2
2017-Sep-26 05:01N 70°58' E 024°31'0 0.7
2017-Sep-26 04:28N 70°58' E 024°32'1 0.1
2017-Sep-25 16:02N 70°58' E 024°34'116.3
2017-Sep-25 16:00N 70°57' E 024°32'613.1
2017-Sep-25 15:30N 70°54' E 024°16'1 1.8
2017-Sep-25 14:59N 70°53' E 024°14'1 2.5
2017-Sep-25 14:29N 70°52' E 024°12'1 1.7
2017-Sep-25 13:59N 70°52' E 024°14'1 2.5
2017-Sep-25 13:30N 70°54' E 024°15'0 0.7
2017-Sep-25 13:00N 70°53' E 024°13'1 1.2
2017-Sep-25 12:30N 70°53' E 024°13'1 1.1
2017-Sep-25 12:00N 70°52' E 024°12'0 0.8
2017-Sep-25 11:30N 70°52' E 024°11'0 0.3
2017-Sep-25 11:00N 70°52' E 024°11'4 7.2
2017-Sep-25 10:30N 70°49' E 024°16'1 1.1
2017-Sep-25 09:59N 70°48' E 024°15'0 0.2
2017-Sep-25 09:29N 70°48' E 024°15'0 0.4
2017-Sep-25 08:59N 70°48' E 024°16'0 0.1
2017-Sep-25 08:29N 70°48' E 024°16'4 9.0
2017-Sep-25 08:01N 70°53' E 024°13'0 0.9
2017-Sep-25 07:31N 70°53' E 024°13'0 0.6
2017-Sep-25 07:00N 70°53' E 024°13'0 0.4
2017-Sep-25 06:29N 70°53' E 024°13'0 1.0
2017-Sep-25 05:59N 70°52' E 024°12'1 1.2
2017-Sep-25 05:29N 70°52' E 024°11'1 1.5
2017-Sep-25 05:00N 70°51' E 024°11'9 0.7
2017-Sep-24 17:10N 70°57' E 024°31'536.5
2017-Sep-24 17:01N 70°54' E 024°16'1 2.8
2017-Sep-24 16:30N 70°53' E 024°13'0 0.1
2017-Sep-24 15:59N 70°53' E 024°13'0 0.5
2017-Sep-24 15:26N 70°53' E 024°13'1 1.7
2017-Sep-24 15:01N 70°52' E 024°12'0 0.6
2017-Sep-24 14:31N 70°52' E 024°12'0 0.6
2017-Sep-24 14:01N 70°52' E 024°13'0 0.5
2017-Sep-24 13:31N 70°52' E 024°13'1 1.4
2017-Sep-24 13:00N 70°53' E 024°14'1 1.2
2017-Sep-24 12:30N 70°53' E 024°13'0 0.8
2017-Sep-24 12:00N 70°53' E 024°13'0 0.5
2017-Sep-24 11:30N 70°53' E 024°13'0 0.3
2017-Sep-24 10:59N 70°53' E 024°14'0 0.5
2017-Sep-24 10:29N 70°53' E 024°14'0 0.4
2017-Sep-24 10:00N 70°53' E 024°14'8 3.4
2017-Sep-24 07:45N 70°58' E 024°33'311.5
2017-Sep-24 07:30N 70°60' E 024°40'  

Dump ship's entire track history